createdAt,value
2022-08-28T00:00:32.494Z,43.05
2022-08-28T00:03:05.759Z,43.27
2022-08-28T00:05:38.466Z,43.02
2022-08-28T00:08:11.829Z,43.16
2022-08-28T00:10:44.436Z,43.17
2022-08-28T00:13:17.543Z,43.03
2022-08-28T00:15:50.673Z,42.80
2022-08-28T00:18:23.484Z,43.06
2022-08-28T00:20:56.517Z,43.06
2022-08-28T00:23:42.388Z,43.00
2022-08-28T00:26:02.590Z,43.09
2022-08-28T00:28:35.517Z,43.08
2022-08-28T00:31:08.654Z,42.91
2022-08-28T00:33:41.538Z,42.71
2022-08-28T00:36:14.546Z,42.84
2022-08-28T00:38:47.529Z,42.68
2022-08-28T00:41:24.949Z,42.53
2022-08-28T00:43:53.514Z,43.07
2022-08-28T00:46:26.629Z,42.99
2022-08-28T00:48:59.591Z,43.48
2022-08-28T00:51:32.528Z,42.83
2022-08-28T00:54:07.877Z,43.04
2022-08-28T00:56:38.626Z,42.63
2022-08-28T00:59:11.545Z,42.94
2022-08-28T01:01:44.741Z,43.02
2022-08-28T01:04:17.453Z,42.70
2022-08-28T01:06:50.659Z,42.60
2022-08-28T01:09:23.510Z,42.53
2022-08-28T01:11:56.655Z,42.76
2022-08-28T01:14:29.652Z,43.03
2022-08-28T01:17:02.599Z,42.83
2022-08-28T01:19:35.598Z,43.00
2022-08-28T01:22:08.601Z,42.86
2022-08-28T01:24:41.614Z,42.96
2022-08-28T01:27:14.361Z,43.07
2022-08-28T01:29:47.858Z,42.83
2022-08-28T01:32:20.578Z,42.60
2022-08-28T01:34:53.627Z,43.26
2022-08-28T01:37:26.687Z,42.95
2022-08-28T01:39:59.706Z,42.83
2022-08-28T01:42:32.578Z,42.69
2022-08-28T01:45:05.654Z,42.80
2022-08-28T01:47:38.650Z,43.01
2022-08-28T01:50:11.622Z,42.71
2022-08-28T01:52:44.704Z,42.72
2022-08-28T01:55:20.644Z,42.56
2022-08-28T01:57:50.692Z,42.58
2022-08-28T02:00:23.624Z,43.01
2022-08-28T02:02:56.677Z,42.63
2022-08-28T02:05:29.663Z,42.60
2022-08-28T02:08:02.402Z,42.53
2022-08-28T02:10:35.388Z,43.13
2022-08-28T02:13:08.653Z,43.17
2022-08-28T02:15:41.821Z,42.71
2022-08-28T02:18:14.942Z,42.67
2022-08-28T02:20:47.700Z,42.38
2022-08-28T02:23:20.623Z,42.42
2022-08-28T02:25:53.709Z,42.44
2022-08-28T02:28:26.639Z,42.48
2022-08-28T02:30:59.788Z,42.30
2022-08-28T02:33:32.705Z,42.37
2022-08-28T02:36:05.692Z,42.42
2022-08-28T02:38:38.792Z,42.34
2022-08-28T02:41:11.649Z,42.31
2022-08-28T02:43:44.751Z,42.39
2022-08-28T02:46:17.727Z,42.33
2022-08-28T02:48:50.782Z,42.41
2022-08-28T02:51:23.692Z,42.38
2022-08-28T02:53:56.798Z,42.42
2022-08-28T02:56:29.679Z,42.44
2022-08-28T02:59:02.810Z,42.40
2022-08-28T03:01:35.766Z,42.55
2022-08-28T03:04:08.763Z,42.47
2022-08-28T03:06:41.773Z,42.55
2022-08-28T03:09:14.696Z,42.57
2022-08-28T03:11:47.683Z,42.63
2022-08-28T03:14:20.708Z,42.59
2022-08-28T03:16:53.806Z,42.47
2022-08-28T03:19:26.848Z,42.59
2022-08-28T03:21:59.764Z,42.58
2022-08-28T03:24:32.834Z,42.59
2022-08-28T03:27:05.728Z,42.65
2022-08-28T03:29:38.813Z,42.44
2022-08-28T03:32:11.787Z,42.95
2022-08-28T03:34:44.808Z,42.45
2022-08-28T03:37:17.751Z,42.37
2022-08-28T03:39:50.812Z,42.38
2022-08-28T03:42:23.761Z,42.31
2022-08-28T03:44:56.836Z,42.36
2022-08-28T03:47:29.879Z,42.63
2022-08-28T03:50:02.794Z,42.63
2022-08-28T03:52:35.850Z,42.55
2022-08-28T03:55:08.817Z,42.96
2022-08-28T03:57:42.001Z,42.41
2022-08-28T04:00:15.784Z,42.42
2022-08-28T04:02:48.604Z,42.55
2022-08-28T04:05:21.908Z,42.55
2022-08-28T04:07:54.838Z,42.31
2022-08-28T04:10:27.784Z,42.42
2022-08-28T04:13:00.840Z,42.45
2022-08-28T04:15:33.860Z,42.41
2022-08-28T04:18:06.805Z,42.50
2022-08-28T04:20:39.567Z,42.36
2022-08-28T04:23:12.684Z,42.38
2022-08-28T04:25:45.552Z,42.38
2022-08-28T04:28:18.793Z,42.49
2022-08-28T04:30:51.893Z,42.53
2022-08-28T04:33:24.826Z,42.54
2022-08-28T04:35:57.837Z,42.51
2022-08-28T04:38:30.954Z,42.60
2022-08-28T04:41:03.852Z,42.69
2022-08-28T04:43:36.849Z,42.75
2022-08-28T04:46:09.953Z,42.55
2022-08-28T04:48:42.903Z,42.59
2022-08-28T04:51:15.891Z,42.62
2022-08-28T04:53:48.743Z,42.56
2022-08-28T04:56:21.879Z,42.78
2022-08-28T04:58:54.955Z,42.78
2022-08-28T05:01:27.963Z,42.47
2022-08-28T05:04:00.892Z,42.42
2022-08-28T05:06:33.922Z,42.42
2022-08-28T05:09:06.892Z,42.35
2022-08-28T05:11:39.988Z,42.42
2022-08-28T05:14:16.100Z,42.33
2022-08-28T05:16:45.946Z,42.43
2022-08-28T05:19:18.940Z,42.37
2022-08-28T05:21:51.783Z,42.42
2022-08-28T05:24:24.642Z,42.37
2022-08-28T05:26:57.997Z,42.52
2022-08-28T05:29:30.964Z,42.44
2022-08-28T05:32:04.006Z,42.48
2022-08-28T05:34:37.004Z,42.50
2022-08-28T05:37:09.951Z,43.07
2022-08-28T05:39:42.934Z,42.78
2022-08-28T05:42:15.910Z,43.22
2022-08-28T05:44:49.043Z,42.74
2022-08-28T05:47:21.914Z,43.12
2022-08-28T05:49:55.033Z,42.89
2022-08-28T05:52:27.996Z,42.59
2022-08-28T05:55:01.042Z,42.51
2022-08-28T05:57:33.641Z,42.77
2022-08-28T06:00:06.973Z,42.72
2022-08-28T06:02:40.040Z,43.09
2022-08-28T06:05:13.351Z,42.79
2022-08-28T06:07:45.980Z,43.30
2022-08-28T06:10:19.003Z,43.51
2022-08-28T06:12:51.973Z,43.23
2022-08-28T06:15:24.917Z,43.38
2022-08-28T06:17:58.019Z,43.16
2022-08-28T06:20:30.970Z,42.89
2022-08-28T06:23:04.089Z,43.51
2022-08-28T06:25:37.007Z,43.03
2022-08-28T06:28:10.036Z,43.56
2022-08-28T06:30:57.347Z,43.42
2022-08-28T06:33:15.700Z,43.30
2022-08-28T06:35:49.092Z,43.02
2022-08-28T06:38:22.021Z,43.55
2022-08-28T06:40:55.067Z,42.98
2022-08-28T06:43:27.731Z,43.06
2022-08-28T06:46:01.051Z,43.27
2022-08-28T06:48:34.106Z,43.17
2022-08-28T06:51:07.029Z,43.49
2022-08-28T06:53:40.004Z,43.18
2022-08-28T06:56:13.643Z,42.90
2022-08-28T06:58:50.294Z,43.25
2022-08-28T07:01:18.804Z,43.52
2022-08-28T07:03:51.742Z,43.65
2022-08-28T07:06:24.757Z,43.47
2022-08-28T07:08:57.826Z,43.31
2022-08-28T07:11:30.819Z,43.66
2022-08-28T07:14:03.872Z,43.59
2022-08-28T07:16:37.154Z,43.67
2022-08-28T07:19:10.655Z,43.29
2022-08-28T07:21:43.183Z,43.72
2022-08-28T07:24:16.140Z,43.55
2022-08-28T07:26:49.182Z,43.69
2022-08-28T07:29:22.050Z,43.85
2022-08-28T07:31:55.056Z,43.87
2022-08-28T07:34:27.950Z,43.53
2022-08-28T07:37:00.812Z,43.80
2022-08-28T07:39:34.182Z,43.98
2022-08-28T07:42:06.929Z,43.92
2022-08-28T07:44:40.104Z,44.08
2022-08-28T07:47:13.194Z,43.70
2022-08-28T07:49:46.099Z,44.13
2022-08-28T07:52:18.810Z,43.98
2022-08-28T07:54:51.912Z,43.53
2022-08-28T07:57:24.844Z,43.07
2022-08-28T07:59:57.991Z,42.57
2022-08-28T08:02:30.937Z,42.78
2022-08-28T08:05:03.855Z,42.83
2022-08-28T08:07:41.923Z,43.10
2022-08-28T08:10:12.885Z,43.32
2022-08-28T08:12:45.957Z,43.48
2022-08-28T08:15:19.138Z,43.51
2022-08-28T08:17:51.995Z,43.62
2022-08-28T08:20:24.860Z,43.78
2022-08-28T08:22:57.994Z,43.97
2022-08-28T08:25:31.066Z,43.91
2022-08-28T08:28:03.941Z,43.88
2022-08-28T08:30:37.028Z,43.85
2022-08-28T08:33:10.011Z,43.89
2022-08-28T08:35:42.983Z,43.78
2022-08-28T08:38:16.243Z,43.76
2022-08-28T08:40:49.276Z,43.90
2022-08-28T08:43:21.871Z,43.93
2022-08-28T08:45:55.188Z,43.74
2022-08-28T08:48:27.962Z,43.47
2022-08-28T08:51:00.900Z,43.69
2022-08-28T08:53:33.898Z,43.57
2022-08-28T08:56:06.964Z,43.53
2022-08-28T08:58:40.072Z,43.57
2022-08-28T09:01:12.969Z,43.57
2022-08-28T09:03:46.128Z,43.58
2022-08-28T09:06:18.915Z,43.54
2022-08-28T09:08:52.208Z,43.47
2022-08-28T09:11:25.025Z,43.54
2022-08-28T09:13:57.988Z,43.49
2022-08-28T09:16:31.123Z,43.39
2022-08-28T09:19:04.353Z,43.41
2022-08-28T09:21:37.091Z,43.41
2022-08-28T09:24:16.046Z,43.37
2022-08-28T09:26:49.029Z,43.24
2022-08-28T09:29:25.201Z,43.31
2022-08-28T09:31:58.003Z,43.26
2022-08-28T09:34:34.360Z,43.23
2022-08-28T09:37:03.974Z,43.04
2022-08-28T09:39:36.990Z,43.02
2022-08-28T09:42:09.967Z,43.08
2022-08-28T09:44:42.980Z,43.21
2022-08-28T09:47:15.990Z,43.14
2022-08-28T09:49:48.984Z,43.23
2022-08-28T09:52:25.264Z,43.25
2022-08-28T09:54:54.983Z,43.21
2022-08-28T09:57:28.187Z,43.34
2022-08-28T10:00:00.999Z,43.21
2022-08-28T10:02:34.277Z,43.19
2022-08-28T10:05:07.026Z,43.19
2022-08-28T10:07:40.201Z,43.21
2022-08-28T10:10:13.008Z,43.37
2022-08-28T10:12:46.073Z,43.24
2022-08-28T10:15:19.048Z,43.21
2022-08-28T10:17:52.317Z,43.29
2022-08-28T10:20:25.034Z,41.77
2022-08-28T10:22:58.056Z,42.05
2022-08-28T10:25:31.191Z,42.20
2022-08-28T10:28:04.025Z,42.37
2022-08-28T10:30:37.155Z,42.58
2022-08-28T10:33:10.057Z,42.84
2022-08-28T10:35:43.119Z,42.84
2022-08-28T10:38:16.054Z,42.94
2022-08-28T10:40:49.072Z,43.00
2022-08-28T10:43:22.276Z,43.10
2022-08-28T10:45:55.162Z,43.10
2022-08-28T10:48:28.062Z,43.18
2022-08-28T10:51:01.070Z,43.21
2022-08-28T10:53:34.279Z,43.24
2022-08-28T10:56:07.175Z,43.26
2022-08-28T10:58:40.101Z,43.28
2022-08-28T11:01:17.214Z,43.32
2022-08-28T11:03:50.211Z,43.33
2022-08-28T11:06:23.319Z,43.34
2022-08-28T11:08:56.282Z,43.39
2022-08-28T11:11:29.293Z,43.43
2022-08-28T11:14:02.085Z,43.40
2022-08-28T11:16:35.153Z,42.99
2022-08-28T11:19:08.317Z,42.09
2022-08-28T11:21:41.243Z,41.95
2022-08-28T11:24:14.291Z,41.92
2022-08-28T11:26:47.500Z,41.98
2022-08-28T11:29:20.212Z,41.99
2022-08-28T11:31:53.336Z,42.05
2022-08-28T11:34:26.131Z,42.04
2022-08-28T11:36:59.205Z,42.35
2022-08-28T11:39:32.140Z,42.29
2022-08-28T11:42:05.183Z,42.48
2022-08-28T11:44:38.180Z,42.55
2022-08-28T11:47:11.323Z,42.60
2022-08-28T11:49:44.268Z,42.76
2022-08-28T11:52:17.167Z,42.88
2022-08-28T11:54:50.195Z,42.93
2022-08-28T11:57:27.106Z,43.02
2022-08-28T12:00:00.333Z,43.10
2022-08-28T12:02:33.347Z,43.17
2022-08-28T12:05:06.235Z,43.21
2022-08-28T12:07:39.359Z,43.27
2022-08-28T12:10:12.187Z,43.32
2022-08-28T12:12:45.199Z,43.37
2022-08-28T12:15:18.216Z,43.37
2022-08-28T12:17:51.257Z,43.45
2022-08-28T12:20:24.175Z,43.45
2022-08-28T12:22:57.269Z,43.49
2022-08-28T12:25:30.307Z,43.55
2022-08-28T12:28:03.371Z,43.57
2022-08-28T12:30:36.414Z,43.77
2022-08-28T12:33:09.303Z,43.69
2022-08-28T12:35:43.797Z,43.66
2022-08-28T12:38:15.212Z,43.70
2022-08-28T12:40:48.205Z,43.75
2022-08-28T12:43:21.427Z,43.77
2022-08-28T12:45:54.301Z,43.79
2022-08-28T12:48:27.293Z,43.76
2022-08-28T12:51:00.238Z,43.82
2022-08-28T12:53:33.428Z,43.81
2022-08-28T12:56:06.228Z,43.82
2022-08-28T12:58:39.258Z,43.61
2022-08-28T13:01:12.356Z,43.68
2022-08-28T13:03:45.249Z,43.95
2022-08-28T13:06:18.287Z,43.97
2022-08-28T13:08:51.297Z,44.03
2022-08-28T13:11:24.557Z,44.16
2022-08-28T13:13:57.279Z,44.08
2022-08-28T13:16:30.389Z,44.06
2022-08-28T13:19:03.622Z,44.02
2022-08-28T13:21:36.690Z,43.96
2022-08-28T13:24:09.466Z,43.93
2022-08-28T13:26:42.273Z,43.92
2022-08-28T13:29:15.463Z,43.91
2022-08-28T13:31:48.469Z,43.87
2022-08-28T13:34:21.297Z,43.82
2022-08-28T13:36:54.583Z,43.76
2022-08-28T13:39:27.292Z,43.72
2022-08-28T13:42:00.323Z,43.72
2022-08-28T13:44:33.604Z,43.70
2022-08-28T13:47:06.427Z,43.68
2022-08-28T13:49:39.357Z,43.71
2022-08-28T13:52:12.468Z,43.66
2022-08-28T13:54:45.707Z,43.68
2022-08-28T13:57:18.611Z,43.67
2022-08-28T13:59:55.529Z,43.67
2022-08-28T14:02:24.804Z,43.70
2022-08-28T14:04:57.340Z,43.70
2022-08-28T14:07:30.494Z,43.67
2022-08-28T14:10:03.582Z,43.65
2022-08-28T14:12:36.501Z,43.62
2022-08-28T14:15:09.529Z,43.65
2022-08-28T14:17:42.483Z,43.65
2022-08-28T14:20:15.692Z,43.64
2022-08-28T14:22:48.776Z,43.65
2022-08-28T14:25:21.613Z,43.65
2022-08-28T14:27:54.518Z,43.64
2022-08-28T14:30:27.524Z,43.64
2022-08-28T14:33:00.373Z,43.63
2022-08-28T14:35:33.389Z,43.64
2022-08-28T14:38:06.439Z,43.63
2022-08-28T14:40:39.515Z,43.64
2022-08-28T14:43:12.801Z,43.63
2022-08-28T14:45:45.469Z,43.59
2022-08-28T14:48:18.697Z,43.58
2022-08-28T14:50:51.740Z,43.52
2022-08-28T14:53:24.710Z,43.50
2022-08-28T14:55:57.399Z,43.39
2022-08-28T14:58:30.792Z,43.29
2022-08-28T15:01:03.695Z,43.26
2022-08-28T15:03:36.857Z,43.13
2022-08-28T15:06:09.424Z,43.09
2022-08-28T15:08:42.526Z,43.00
2022-08-28T15:11:18.656Z,43.09
2022-08-28T15:14:02.427Z,43.06
2022-08-28T15:16:41.411Z,42.97
2022-08-28T15:19:14.721Z,42.90
2022-08-28T15:21:47.744Z,42.96
2022-08-28T15:24:20.443Z,42.93
2022-08-28T15:26:53.458Z,42.93
2022-08-28T15:29:26.477Z,42.92
2022-08-28T15:31:59.547Z,42.91
2022-08-28T15:34:32.580Z,42.88
2022-08-28T15:37:07.901Z,42.82
2022-08-28T15:39:38.492Z,42.89
2022-08-28T15:42:11.807Z,42.86
2022-08-28T15:44:44.620Z,42.81
2022-08-28T15:47:17.484Z,42.87
2022-08-28T15:49:52.038Z,42.87
2022-08-28T15:52:23.486Z,42.87
2022-08-28T15:54:56.837Z,42.89
2022-08-28T15:57:29.628Z,42.96
2022-08-28T16:00:02.695Z,42.98
2022-08-28T16:02:35.551Z,43.02
2022-08-28T16:05:08.871Z,43.02
2022-08-28T16:07:41.782Z,43.06
2022-08-28T16:10:14.675Z,43.08
2022-08-28T16:12:47.893Z,43.30
2022-08-28T16:15:21.474Z,43.37
2022-08-28T16:17:53.530Z,43.52
2022-08-28T16:20:26.804Z,43.57
2022-08-28T16:22:59.847Z,43.51
2022-08-28T16:25:32.768Z,43.49
2022-08-28T16:28:05.546Z,43.53
2022-08-28T16:30:38.638Z,43.58
2022-08-28T16:33:11.551Z,43.65
2022-08-28T16:35:49.463Z,43.73
2022-08-28T16:38:17.787Z,43.83
2022-08-28T16:40:50.552Z,43.88
2022-08-28T16:43:23.839Z,44.13
2022-08-28T16:45:56.937Z,44.24
2022-08-28T16:48:32.490Z,44.31
2022-08-28T16:51:05.646Z,44.31
2022-08-28T16:53:38.744Z,44.21
2022-08-28T16:56:11.696Z,44.17
2022-08-28T16:58:44.727Z,44.26
2022-08-28T17:01:31.679Z,44.25
2022-08-28T17:04:18.565Z,44.32
2022-08-28T17:06:51.714Z,44.31
2022-08-28T17:09:24.763Z,44.38
2022-08-28T17:11:57.728Z,44.37
2022-08-28T17:14:30.753Z,44.43
2022-08-28T17:17:03.807Z,44.40
2022-08-28T17:19:38.268Z,44.42
2022-08-28T17:22:09.702Z,44.41
2022-08-28T17:24:42.822Z,44.41
2022-08-28T17:27:15.775Z,44.42
2022-08-28T17:29:48.741Z,44.42
2022-08-28T17:32:21.843Z,44.47
2022-08-28T17:34:54.744Z,44.50
2022-08-28T17:37:27.768Z,44.52
2022-08-28T17:40:06.784Z,44.53
2022-08-28T17:42:39.699Z,44.59
2022-08-28T17:45:12.805Z,44.58
2022-08-28T17:47:45.696Z,44.53
2022-08-28T17:50:18.671Z,44.32
2022-08-28T17:52:51.797Z,44.31
2022-08-28T17:55:24.660Z,44.11
2022-08-28T17:57:57.950Z,44.04
2022-08-28T18:00:30.804Z,43.80
2022-08-28T18:03:03.857Z,43.52
2022-08-28T18:05:38.935Z,43.59
2022-08-28T18:08:13.366Z,43.49
2022-08-28T18:10:46.851Z,43.92
2022-08-28T18:13:19.680Z,43.61
2022-08-28T18:15:56.875Z,43.54
2022-08-28T18:18:39.757Z,43.33
2022-08-28T18:21:12.895Z,42.96
2022-08-28T18:23:45.945Z,43.26
2022-08-28T18:26:18.820Z,41.67
2022-08-28T18:28:51.901Z,41.55
2022-08-28T18:31:24.964Z,41.24
2022-08-28T18:33:57.751Z,40.72
2022-08-28T18:36:30.823Z,40.75
2022-08-28T18:39:03.781Z,40.99
2022-08-28T18:41:43.911Z,40.52
2022-08-28T18:44:09.829Z,40.04
2022-08-28T18:46:42.893Z,40.10
2022-08-28T18:49:15.774Z,39.87
2022-08-28T18:51:49.124Z,39.73
2022-08-28T18:54:21.755Z,39.90
2022-08-28T18:56:59.673Z,39.41
2022-08-28T18:59:28.043Z,40.49
2022-08-28T19:02:01.233Z,39.97
2022-08-28T19:04:33.970Z,39.74
2022-08-28T19:07:06.872Z,39.91
2022-08-28T19:09:39.826Z,39.02
2022-08-28T19:12:12.842Z,38.79
2022-08-28T19:14:45.959Z,38.68
2022-08-28T19:17:21.088Z,38.18
2022-08-28T19:19:52.008Z,38.08
2022-08-28T19:22:24.828Z,38.24
2022-08-28T19:24:57.961Z,38.14
2022-08-28T19:27:30.923Z,38.06
2022-08-28T19:30:04.037Z,37.91
2022-08-28T19:32:36.943Z,37.76
2022-08-28T19:35:10.018Z,37.57
2022-08-28T19:37:42.889Z,37.47
2022-08-28T19:40:15.982Z,37.54
2022-08-28T19:42:49.017Z,37.20
2022-08-28T19:45:22.107Z,37.28
2022-08-28T19:47:54.893Z,37.52
2022-08-28T19:50:27.837Z,37.70
2022-08-28T19:53:01.235Z,37.10
2022-08-28T19:55:34.255Z,37.43
2022-08-28T19:58:06.984Z,37.17
2022-08-28T20:00:40.163Z,37.75
2022-08-28T20:03:12.827Z,37.16
2022-08-28T20:05:46.258Z,37.04
2022-08-28T20:08:19.243Z,36.40
2022-08-28T20:10:51.837Z,37.04
2022-08-28T20:13:25.115Z,36.90
2022-08-28T20:15:58.204Z,40.54
2022-08-28T20:18:31.016Z,41.31
2022-08-28T20:21:04.205Z,41.11
2022-08-28T20:23:37.030Z,40.02
2022-08-28T20:26:10.091Z,40.28
2022-08-28T20:28:42.998Z,39.67
2022-08-28T20:31:16.106Z,40.95
2022-08-28T20:33:49.017Z,38.57
2022-08-28T20:36:22.890Z,39.19
2022-08-28T20:38:55.946Z,38.75
2022-08-28T20:41:28.956Z,39.77
2022-08-28T20:44:01.930Z,39.05
2022-08-28T20:46:40.521Z,39.40
2022-08-28T20:49:08.265Z,39.11
2022-08-28T20:51:41.215Z,37.84
2022-08-28T20:54:14.322Z,37.29
2022-08-28T20:56:47.372Z,37.24
2022-08-28T20:59:21.352Z,36.36
2022-08-28T21:01:54.355Z,36.16
2022-08-28T21:04:27.198Z,36.29
2022-08-28T21:07:00.322Z,36.52
2022-08-28T21:09:43.957Z,36.04
2022-08-28T21:12:06.340Z,36.32
2022-08-28T21:14:39.312Z,35.86
2022-08-28T21:17:12.366Z,35.34
2022-08-28T21:19:45.290Z,35.85
2022-08-28T21:22:18.361Z,35.29
2022-08-28T21:24:51.310Z,35.29
2022-08-28T21:27:24.300Z,35.38
2022-08-28T21:29:57.385Z,34.87
2022-08-28T21:32:30.282Z,35.02
2022-08-28T21:35:03.356Z,34.90
2022-08-28T21:37:36.257Z,35.14
2022-08-28T21:40:09.449Z,35.00
2022-08-28T21:42:42.283Z,34.71
2022-08-28T21:45:15.340Z,34.55
2022-08-28T21:47:48.347Z,34.51
2022-08-28T21:50:21.377Z,34.33
2022-08-28T21:52:54.159Z,34.04
2022-08-28T21:55:27.267Z,34.14
2022-08-28T21:58:00.293Z,33.84
2022-08-28T22:00:33.368Z,34.13
2022-08-28T22:03:06.418Z,33.75
2022-08-28T22:05:39.427Z,33.77
2022-08-28T22:08:12.367Z,33.81
2022-08-28T22:10:45.426Z,33.68
2022-08-28T22:13:18.403Z,33.74
2022-08-28T22:15:51.375Z,33.72
2022-08-28T22:18:24.332Z,33.71
2022-08-28T22:20:57.359Z,33.96
2022-08-28T22:23:30.429Z,33.95
2022-08-28T22:26:03.451Z,34.03
2022-08-28T22:28:36.437Z,34.03
2022-08-28T22:31:09.319Z,34.03
2022-08-28T22:33:42.454Z,33.74
2022-08-28T22:36:15.356Z,33.74
2022-08-28T22:38:53.141Z,33.68
2022-08-28T22:41:21.357Z,33.77
2022-08-28T22:43:54.372Z,33.77
2022-08-28T22:46:27.372Z,34.09
2022-08-28T22:49:00.337Z,34.46
2022-08-28T22:51:33.416Z,34.28
2022-08-28T22:54:06.390Z,34.34
2022-08-28T22:56:39.439Z,34.31
2022-08-28T22:59:12.464Z,34.01
2022-08-28T23:01:45.354Z,33.92
2022-08-28T23:04:18.605Z,34.76
2022-08-28T23:06:51.466Z,35.13
2022-08-28T23:09:24.388Z,33.98
2022-08-28T23:12:00.021Z,33.75
2022-08-28T23:14:30.511Z,33.45
2022-08-28T23:17:03.456Z,33.61
2022-08-28T23:19:36.503Z,33.52
2022-08-28T23:22:09.465Z,33.59
2022-08-28T23:24:42.487Z,33.80
2022-08-28T23:27:35.452Z,33.98
2022-08-28T23:29:53.337Z,34.00
2022-08-28T23:32:21.403Z,33.89
2022-08-28T23:34:54.450Z,34.16
2022-08-28T23:37:27.442Z,33.99
2022-08-28T23:40:00.735Z,33.92
2022-08-28T23:42:33.506Z,34.26
2022-08-28T23:45:06.537Z,34.25
2022-08-28T23:47:40.626Z,34.22
2022-08-28T23:50:12.540Z,34.08
2022-08-28T23:52:45.483Z,34.33
2022-08-28T23:55:18.450Z,34.17
2022-08-28T23:57:52.320Z,34.41
